createdAt,value
2018-09-11T00:00:11.420Z,0
2018-09-11T00:00:43.502Z,0
2018-09-11T00:01:15.555Z,0
2018-09-11T00:01:47.590Z,0
2018-09-11T00:02:19.638Z,0
2018-09-11T00:02:51.852Z,0
2018-09-11T00:03:23.994Z,0
2018-09-11T00:03:56.024Z,0
2018-09-11T00:04:28.062Z,0
2018-09-11T00:05:00.127Z,0
2018-09-11T00:05:32.195Z,0
2018-09-11T00:06:05.560Z,0
2018-09-11T00:06:37.620Z,0
2018-09-11T00:07:09.672Z,0
2018-09-11T00:07:41.680Z,0
2018-09-11T00:08:13.742Z,0
2018-09-11T00:08:45.826Z,0
2018-09-11T00:09:17.880Z,0
2018-09-11T00:09:49.944Z,0
2018-09-11T00:10:21.992Z,0
2018-09-11T00:10:54.028Z,0
2018-09-11T00:11:26.122Z,0
2018-09-11T00:11:58.189Z,0
2018-09-11T00:12:30.262Z,0
2018-09-11T00:13:02.309Z,0
2018-09-11T00:13:34.338Z,0
2018-09-11T00:14:06.477Z,0
2018-09-11T00:14:38.556Z,0
2018-09-11T00:15:10.567Z,0
2018-09-11T00:15:42.660Z,0
2018-09-11T00:16:14.698Z,0
2018-09-11T00:16:46.776Z,0
2018-09-11T00:17:18.850Z,0
2018-09-11T00:17:50.921Z,0
2018-09-11T00:18:23.088Z,0
2018-09-11T00:18:55.166Z,0
2018-09-11T00:19:27.227Z,0
2018-09-11T00:19:59.784Z,0
2018-09-11T00:20:31.812Z,0
2018-09-11T00:21:03.900Z,0
2018-09-11T00:21:35.938Z,0
2018-09-11T00:22:07.991Z,0
2018-09-11T00:22:40.124Z,0
2018-09-11T00:23:12.166Z,0
2018-09-11T00:23:44.245Z,0
2018-09-11T00:24:16.305Z,0
2018-09-11T00:24:48.392Z,0
2018-09-11T00:25:20.469Z,0
2018-09-11T00:25:52.505Z,0
2018-09-11T00:26:24.597Z,0
2018-09-11T00:26:56.659Z,0
2018-09-11T00:27:28.720Z,0
2018-09-11T00:28:00.852Z,0
2018-09-11T00:28:33.054Z,0
2018-09-11T00:29:05.079Z,0
2018-09-11T00:29:37.095Z,0
2018-09-11T00:30:09.144Z,0
2018-09-11T00:30:41.222Z,0
2018-09-11T00:31:13.313Z,0
2018-09-11T00:31:45.362Z,0
2018-09-11T00:32:17.394Z,0
2018-09-11T00:32:49.519Z,0
2018-09-11T00:33:21.591Z,0
2018-09-11T00:33:53.695Z,0
2018-09-11T00:34:25.854Z,0
2018-09-11T00:34:57.966Z,0
2018-09-11T00:35:30.001Z,0
2018-09-11T00:36:02.054Z,0
2018-09-11T00:36:34.093Z,0
2018-09-11T00:37:06.210Z,0
2018-09-11T00:37:38.278Z,0
2018-09-11T00:38:10.358Z,0
2018-09-11T00:38:42.436Z,0
2018-09-11T00:39:14.494Z,0
2018-09-11T00:39:46.588Z,0
2018-09-11T00:40:18.748Z,0
2018-09-11T00:40:50.832Z,0
2018-09-11T00:41:22.845Z,0
2018-09-11T00:41:54.925Z,0
2018-09-11T00:42:26.991Z,0
2018-09-11T00:42:59.048Z,0
2018-09-11T00:43:31.135Z,0
2018-09-11T00:44:03.197Z,0
2018-09-11T00:44:35.320Z,0
2018-09-11T00:45:07.345Z,0
2018-09-11T00:45:39.415Z,0
2018-09-11T00:46:11.549Z,0
2018-09-11T00:46:44.301Z,0
2018-09-11T00:47:16.342Z,0
2018-09-11T00:47:48.369Z,0
2018-09-11T00:48:20.437Z,0
2018-09-11T00:48:52.481Z,0
2018-09-11T00:49:24.559Z,0
2018-09-11T00:49:56.611Z,0
2018-09-11T00:50:28.694Z,0
2018-09-11T00:51:00.717Z,0
2018-09-11T00:51:32.781Z,0
2018-09-11T00:52:04.830Z,0
2018-09-11T00:52:36.836Z,0
2018-09-11T00:53:08.968Z,0
2018-09-11T00:53:41.006Z,0
2018-09-11T00:54:13.095Z,0
2018-09-11T00:54:45.224Z,0
2018-09-11T00:55:17.359Z,0
2018-09-11T00:55:49.432Z,0
2018-09-11T00:56:21.423Z,0
2018-09-11T00:56:53.454Z,0
2018-09-11T00:57:26.304Z,0
2018-09-11T00:57:58.357Z,0
2018-09-11T00:58:30.405Z,0
2018-09-11T00:59:02.463Z,0
2018-09-11T00:59:34.551Z,0
2018-09-11T01:00:06.669Z,0
2018-09-11T01:00:39.541Z,0
2018-09-11T01:01:11.564Z,0
2018-09-11T01:01:43.611Z,0
2018-09-11T01:02:15.668Z,0
2018-09-11T01:02:47.800Z,0
2018-09-11T01:03:19.956Z,0
2018-09-11T01:03:52.108Z,0
2018-09-11T01:04:24.222Z,0
2018-09-11T01:04:56.287Z,0
2018-09-11T01:05:28.346Z,0
2018-09-11T01:06:00.417Z,0
2018-09-11T01:06:32.465Z,0
2018-09-11T01:07:04.511Z,0
2018-09-11T01:07:36.612Z,0
2018-09-11T01:08:08.653Z,0
2018-09-11T01:08:40.675Z,0
2018-09-11T01:09:13.564Z,0
2018-09-11T01:09:45.838Z,0
2018-09-11T01:10:17.964Z,0
2018-09-11T01:10:49.892Z,0
2018-09-11T01:11:21.934Z,0
2018-09-11T01:11:53.993Z,0
2018-09-11T01:12:26.078Z,0
2018-09-11T01:12:58.106Z,0
2018-09-11T01:13:30.167Z,0
2018-09-11T01:14:02.243Z,0
2018-09-11T01:14:34.327Z,0
2018-09-11T01:15:06.372Z,0
2018-09-11T01:15:38.437Z,0
2018-09-11T01:16:10.497Z,0
2018-09-11T01:16:42.544Z,0
2018-09-11T01:17:14.591Z,0
2018-09-11T01:17:46.662Z,0
2018-09-11T01:18:18.733Z,0
2018-09-11T01:18:50.733Z,0
2018-09-11T01:19:22.749Z,0
2018-09-11T01:19:54.827Z,0
2018-09-11T01:20:26.872Z,0
2018-09-11T01:20:58.953Z,0
2018-09-11T01:21:31.007Z,0
2018-09-11T01:22:03.054Z,0
2018-09-11T01:22:35.094Z,0
2018-09-11T01:23:07.130Z,0
2018-09-11T01:23:39.966Z,0
2018-09-11T01:24:12.037Z,0
2018-09-11T01:24:44.114Z,0
2018-09-11T01:25:16.183Z,0
2018-09-11T01:25:48.229Z,0
2018-09-11T01:26:21.129Z,0
2018-09-11T01:26:53.149Z,0
2018-09-11T01:27:25.219Z,0
2018-09-11T01:27:57.292Z,0
2018-09-11T01:28:29.310Z,0
2018-09-11T01:29:01.316Z,0
2018-09-11T01:29:33.418Z,0
2018-09-11T01:30:05.464Z,0
2018-09-11T01:30:37.476Z,0
2018-09-11T01:31:09.539Z,0
2018-09-11T01:31:41.584Z,0
2018-09-11T01:32:13.654Z,0
2018-09-11T01:32:46.296Z,0
2018-09-11T01:33:18.378Z,0
2018-09-11T01:33:50.419Z,0
2018-09-11T01:34:22.482Z,0
2018-09-11T01:34:54.566Z,0
2018-09-11T01:35:26.626Z,0
2018-09-11T01:35:58.705Z,0
2018-09-11T01:36:30.799Z,0
2018-09-11T01:37:02.835Z,0
2018-09-11T01:37:34.860Z,0
2018-09-11T01:38:06.972Z,0
2018-09-11T01:38:39.537Z,0
2018-09-11T01:39:11.642Z,0
2018-09-11T01:39:43.670Z,0
2018-09-11T01:40:15.810Z,0
2018-09-11T01:40:47.975Z,0
2018-09-11T01:41:20.144Z,0
2018-09-11T01:41:52.210Z,0
2018-09-11T01:42:24.257Z,0
2018-09-11T01:42:56.305Z,0
2018-09-11T01:43:28.398Z,0
2018-09-11T01:44:00.658Z,0
2018-09-11T01:44:32.756Z,0
2018-09-11T01:45:05.632Z,0
2018-09-11T01:45:37.699Z,0
2018-09-11T01:46:09.884Z,0
2018-09-11T01:46:41.967Z,0
2018-09-11T01:47:14.019Z,0
2018-09-11T01:47:46.079Z,0
2018-09-11T01:48:18.124Z,0
2018-09-11T01:48:50.181Z,0
2018-09-11T01:49:22.244Z,0
2018-09-11T01:49:54.283Z,0
2018-09-11T01:50:26.359Z,0
2018-09-11T01:50:58.376Z,0
2018-09-11T01:51:30.440Z,0
2018-09-11T01:52:02.531Z,0
2018-09-11T01:52:34.610Z,0
2018-09-11T01:53:06.720Z,0
2018-09-11T01:53:38.741Z,0
2018-09-11T01:54:10.799Z,0
2018-09-11T01:54:42.850Z,0
2018-09-11T01:55:14.946Z,0
2018-09-11T01:55:47.538Z,0
2018-09-11T01:56:19.556Z,0
2018-09-11T01:56:51.638Z,0
2018-09-11T01:57:23.656Z,0
2018-09-11T01:57:55.697Z,0
2018-09-11T01:58:27.794Z,0
2018-09-11T01:58:59.850Z,0
2018-09-11T01:59:31.885Z,0
2018-09-11T02:00:03.936Z,0
2018-09-11T02:00:36.063Z,0
2018-09-11T02:01:08.066Z,0
2018-09-11T02:01:40.131Z,0
2018-09-11T02:02:12.231Z,0
2018-09-11T02:02:44.303Z,0
2018-09-11T02:03:16.377Z,0
2018-09-11T02:03:48.472Z,0
2018-09-11T02:04:20.544Z,0
2018-09-11T02:04:52.575Z,0
2018-09-11T02:05:24.653Z,0
2018-09-11T02:05:56.732Z,0
2018-09-11T02:06:28.851Z,0
2018-09-11T02:07:00.928Z,0
2018-09-11T02:07:32.958Z,0
2018-09-11T02:08:05.060Z,0
2018-09-11T02:08:37.134Z,0
2018-09-11T02:09:09.235Z,0
2018-09-11T02:09:41.327Z,0
2018-09-11T02:10:13.396Z,0
2018-09-11T02:10:45.457Z,0
2018-09-11T02:11:17.529Z,0
2018-09-11T02:11:49.583Z,0
2018-09-11T02:12:21.604Z,0
2018-09-11T02:12:53.684Z,0
2018-09-11T02:13:26.651Z,0
2018-09-11T02:13:58.700Z,0
2018-09-11T02:14:30.744Z,0
2018-09-11T02:15:02.827Z,0
2018-09-11T02:15:34.855Z,0
2018-09-11T02:16:06.889Z,0
2018-09-11T02:16:38.970Z,0
2018-09-11T02:17:11.008Z,0
2018-09-11T02:17:43.075Z,0
2018-09-11T02:18:15.133Z,0
2018-09-11T02:18:47.192Z,0
2018-09-11T02:19:19.257Z,0
2018-09-11T02:19:51.321Z,0
2018-09-11T02:20:23.433Z,0
2018-09-11T02:20:55.476Z,0
2018-09-11T02:21:27.573Z,0
2018-09-11T02:21:59.647Z,0
2018-09-11T02:22:31.681Z,0
2018-09-11T02:23:03.732Z,0
2018-09-11T02:23:35.800Z,0
2018-09-11T02:24:07.889Z,0
2018-09-11T02:24:39.962Z,0
2018-09-11T02:25:12.093Z,0
2018-09-11T02:25:44.160Z,0
2018-09-11T02:26:16.217Z,0
2018-09-11T02:26:48.250Z,0
2018-09-11T02:27:20.361Z,0
2018-09-11T02:27:52.440Z,0
2018-09-11T02:28:24.525Z,0
2018-09-11T02:28:56.617Z,0
2018-09-11T02:29:28.658Z,0
2018-09-11T02:30:00.721Z,0
2018-09-11T02:30:32.829Z,0
2018-09-11T02:31:04.883Z,0
2018-09-11T02:31:36.925Z,0
2018-09-11T02:32:08.979Z,0
2018-09-11T02:32:41.059Z,0
2018-09-11T02:33:13.139Z,0
2018-09-11T02:33:45.218Z,0
2018-09-11T02:34:17.344Z,0
2018-09-11T02:34:49.342Z,0
2018-09-11T02:35:21.406Z,0
2018-09-11T02:35:54.093Z,0
2018-09-11T02:36:26.107Z,0
2018-09-11T02:36:58.191Z,0
2018-09-11T02:37:30.269Z,0
2018-09-11T02:38:02.348Z,0
2018-09-11T02:38:34.426Z,0
2018-09-11T02:39:06.480Z,0
2018-09-11T02:39:38.554Z,0
2018-09-11T02:40:10.614Z,0
2018-09-11T02:40:42.643Z,0
2018-09-11T02:41:14.682Z,0
2018-09-11T02:41:46.707Z,0
2018-09-11T02:42:19.420Z,0
2018-09-11T02:42:51.490Z,0
2018-09-11T02:43:23.571Z,0
2018-09-11T02:43:55.759Z,0
2018-09-11T02:44:27.899Z,0
2018-09-11T02:44:59.944Z,0
2018-09-11T02:45:32.029Z,0
2018-09-11T02:46:04.079Z,0
2018-09-11T02:46:36.139Z,0
2018-09-11T02:47:08.314Z,0
2018-09-11T02:47:40.394Z,0
2018-09-11T02:48:12.420Z,0
2018-09-11T02:48:44.459Z,0
2018-09-11T02:49:16.504Z,0
2018-09-11T02:49:48.615Z,0
2018-09-11T02:50:20.680Z,0
2018-09-11T02:50:53.517Z,0
2018-09-11T02:51:25.574Z,0
2018-09-11T02:51:57.647Z,0
2018-09-11T02:52:29.707Z,0
2018-09-11T02:53:01.842Z,0
2018-09-11T02:53:33.890Z,0
2018-09-11T02:54:06.039Z,0
2018-09-11T02:54:38.114Z,0
2018-09-11T02:55:10.209Z,0
2018-09-11T02:55:42.278Z,0
2018-09-11T02:56:14.342Z,0
2018-09-11T02:56:46.448Z,0
2018-09-11T02:57:19.080Z,0
2018-09-11T02:57:51.161Z,0
2018-09-11T02:58:23.245Z,0
2018-09-11T02:58:55.293Z,0
2018-09-11T02:59:27.352Z,0
2018-09-11T02:59:59.428Z,0
2018-09-11T03:00:31.516Z,0
2018-09-11T03:01:03.575Z,0
2018-09-11T03:01:35.619Z,0
2018-09-11T03:02:07.659Z,0
2018-09-11T03:02:39.740Z,0
2018-09-11T03:03:11.819Z,0
2018-09-11T03:03:43.875Z,0
2018-09-11T03:04:15.953Z,0
2018-09-11T03:04:48.037Z,0
2018-09-11T03:05:20.110Z,0
2018-09-11T03:05:52.659Z,0
2018-09-11T03:06:24.710Z,0
2018-09-11T03:06:56.745Z,0
2018-09-11T03:07:28.821Z,0
2018-09-11T03:08:00.848Z,0
2018-09-11T03:08:32.920Z,0
2018-09-11T03:09:04.942Z,0
2018-09-11T03:09:37.035Z,0
2018-09-11T03:10:09.087Z,0
2018-09-11T03:10:41.113Z,0
2018-09-11T03:11:13.231Z,0
2018-09-11T03:11:45.264Z,0
2018-09-11T03:12:17.360Z,0
2018-09-11T03:12:49.430Z,0
2018-09-11T03:13:21.501Z,0
2018-09-11T03:13:53.540Z,0
2018-09-11T03:14:25.609Z,0
2018-09-11T03:14:57.700Z,0
2018-09-11T03:15:29.822Z,0
2018-09-11T03:16:01.916Z,0
2018-09-11T03:16:33.961Z,0
2018-09-11T03:17:06.668Z,0
2018-09-11T03:17:38.729Z,0
2018-09-11T03:18:10.822Z,0
2018-09-11T03:18:42.892Z,0
2018-09-11T03:19:14.994Z,0
2018-09-11T03:19:47.031Z,0
2018-09-11T03:20:19.072Z,0
2018-09-11T03:20:51.097Z,0
2018-09-11T03:21:23.182Z,0
2018-09-11T03:21:55.225Z,0
2018-09-11T03:22:27.285Z,0
2018-09-11T03:22:59.401Z,0
2018-09-11T03:23:32.354Z,0
2018-09-11T03:24:04.397Z,0
2018-09-11T03:24:36.456Z,0
2018-09-11T03:25:08.524Z,0
2018-09-11T03:25:40.569Z,0
2018-09-11T03:26:12.628Z,0
2018-09-11T03:26:44.648Z,0
2018-09-11T03:27:16.725Z,0
2018-09-11T03:27:48.755Z,0
2018-09-11T03:28:20.808Z,0
2018-09-11T03:28:52.877Z,0
2018-09-11T03:29:24.942Z,0
2018-09-11T03:29:57.072Z,0
2018-09-11T03:30:29.136Z,0
2018-09-11T03:31:01.198Z,0
2018-09-11T03:31:33.888Z,0
2018-09-11T03:32:05.927Z,0
2018-09-11T03:32:38.102Z,0
2018-09-11T03:33:10.119Z,0
2018-09-11T03:33:42.164Z,0
2018-09-11T03:34:14.183Z,0
2018-09-11T03:34:47.193Z,0
2018-09-11T03:35:19.303Z,0
2018-09-11T03:35:51.343Z,0
2018-09-11T03:36:23.443Z,0
2018-09-11T03:36:55.554Z,0
2018-09-11T03:37:27.613Z,0
2018-09-11T03:37:59.760Z,0
2018-09-11T03:38:31.809Z,0
2018-09-11T03:39:03.961Z,0
2018-09-11T03:39:36.063Z,0
2018-09-11T03:40:08.176Z,0
2018-09-11T03:40:40.182Z,0
2018-09-11T03:41:12.237Z,0
2018-09-11T03:41:44.300Z,0
2018-09-11T03:42:16.344Z,0
2018-09-11T03:42:48.544Z,0
2018-09-11T03:43:20.736Z,0
2018-09-11T03:43:52.825Z,0
2018-09-11T03:44:25.034Z,0
2018-09-11T03:44:57.113Z,0
2018-09-11T03:45:29.220Z,0
2018-09-11T03:46:01.282Z,0
2018-09-11T03:46:33.328Z,0
2018-09-11T03:47:05.422Z,0
2018-09-11T03:47:37.428Z,0
2018-09-11T03:48:09.467Z,0
2018-09-11T03:48:41.540Z,0
2018-09-11T03:49:13.606Z,0
2018-09-11T03:49:45.658Z,0
2018-09-11T03:50:17.689Z,0
2018-09-11T03:50:49.760Z,0
2018-09-11T03:51:21.838Z,0
2018-09-11T03:51:53.902Z,0
2018-09-11T03:52:25.893Z,0
2018-09-11T03:52:57.937Z,0
2018-09-11T03:53:30.011Z,0
2018-09-11T03:54:02.079Z,0
2018-09-11T03:54:34.100Z,0
2018-09-11T03:55:06.144Z,0
2018-09-11T03:55:38.257Z,0
2018-09-11T03:56:10.320Z,0
2018-09-11T03:56:42.412Z,0
2018-09-11T03:57:14.535Z,0
2018-09-11T03:57:46.608Z,0
2018-09-11T03:58:18.660Z,0
2018-09-11T03:58:51.197Z,0
2018-09-11T03:59:23.319Z,0
2018-09-11T03:59:55.435Z,0
2018-09-11T04:00:27.501Z,0
2018-09-11T04:00:59.544Z,0
2018-09-11T04:01:31.621Z,0
2018-09-11T04:02:03.668Z,0
2018-09-11T04:02:35.688Z,0
2018-09-11T04:03:07.793Z,0
2018-09-11T04:03:39.855Z,0
2018-09-11T04:04:11.932Z,0
2018-09-11T04:04:43.978Z,0
2018-09-11T04:05:16.087Z,0
2018-09-11T04:05:48.678Z,0
2018-09-11T04:06:20.779Z,0
2018-09-11T04:06:52.868Z,0
2018-09-11T04:07:24.914Z,0
2018-09-11T04:07:57.082Z,0
2018-09-11T04:08:29.053Z,0
2018-09-11T04:09:01.120Z,0
2018-09-11T04:09:33.171Z,0
2018-09-11T04:10:05.247Z,0
2018-09-11T04:10:37.287Z,0
2018-09-11T04:11:09.383Z,0
2018-09-11T04:11:41.430Z,0
2018-09-11T04:12:13.502Z,0
2018-09-11T04:12:45.577Z,0
2018-09-11T04:13:17.664Z,0
2018-09-11T04:13:49.715Z,0
2018-09-11T04:14:21.766Z,0
2018-09-11T04:14:53.878Z,0
2018-09-11T04:15:25.960Z,0
2018-09-11T04:15:58.012Z,0
2018-09-11T04:16:29.997Z,0
2018-09-11T04:17:02.148Z,0
2018-09-11T04:17:34.321Z,0
2018-09-11T04:18:06.320Z,0
2018-09-11T04:18:38.367Z,0
2018-09-11T04:19:10.405Z,0
2018-09-11T04:19:42.471Z,0
2018-09-11T04:20:14.505Z,0
2018-09-11T04:20:46.555Z,0
2018-09-11T04:21:18.639Z,0
2018-09-11T04:21:50.717Z,0
2018-09-11T04:22:22.927Z,0
2018-09-11T04:22:55.005Z,0
2018-09-11T04:23:27.230Z,0
2018-09-11T04:23:59.264Z,0
2018-09-11T04:24:31.327Z,0
2018-09-11T04:25:03.465Z,0
2018-09-11T04:25:35.569Z,0
2018-09-11T04:26:07.632Z,0
2018-09-11T04:26:39.683Z,0
2018-09-11T04:27:11.859Z,0
2018-09-11T04:27:43.949Z,0
2018-09-11T04:28:15.995Z,0
2018-09-11T04:28:48.052Z,0
2018-09-11T04:29:20.132Z,0
2018-09-11T04:29:52.158Z,0
2018-09-11T04:30:24.204Z,0
2018-09-11T04:30:56.243Z,0
2018-09-11T04:31:28.314Z,0
2018-09-11T04:32:00.397Z,0
2018-09-11T04:32:32.553Z,0
2018-09-11T04:33:04.580Z,0
2018-09-11T04:33:36.656Z,0
2018-09-11T04:34:08.727Z,0
2018-09-11T04:34:40.727Z,0
2018-09-11T04:35:12.827Z,0
2018-09-11T04:35:44.985Z,0
2018-09-11T04:36:17.059Z,0
2018-09-11T04:36:49.084Z,0
2018-09-11T04:37:21.139Z,0
2018-09-11T04:37:53.188Z,0
2018-09-11T04:38:25.233Z,0
2018-09-11T04:38:57.307Z,0
2018-09-11T04:39:29.404Z,0
2018-09-11T04:40:01.477Z,0
2018-09-11T04:40:33.600Z,0
2018-09-11T04:41:05.863Z,0
2018-09-11T04:41:37.963Z,0
2018-09-11T04:42:09.992Z,0
2018-09-11T04:42:42.033Z,0
2018-09-11T04:43:14.090Z,0
2018-09-11T04:43:46.147Z,0
2018-09-11T04:44:18.210Z,0
2018-09-11T04:44:50.255Z,0
2018-09-11T04:45:22.285Z,0
2018-09-11T04:45:54.329Z,0
2018-09-11T04:46:26.378Z,0
2018-09-11T04:46:58.454Z,0
2018-09-11T04:47:30.520Z,0
2018-09-11T04:48:02.581Z,0
2018-09-11T04:48:34.630Z,0
2018-09-11T04:49:06.645Z,0
2018-09-11T04:49:38.668Z,0
2018-09-11T04:50:10.801Z,0
2018-09-11T04:50:42.867Z,0
2018-09-11T04:51:14.974Z,0
2018-09-11T04:51:47.032Z,0
2018-09-11T04:52:19.103Z,0
2018-09-11T04:52:51.161Z,0
2018-09-11T04:53:23.209Z,0
2018-09-11T04:53:55.277Z,0
2018-09-11T04:54:27.378Z,0
2018-09-11T04:54:59.602Z,0
2018-09-11T04:55:31.616Z,0
2018-09-11T04:56:03.799Z,0
2018-09-11T04:56:35.790Z,0
2018-09-11T04:57:07.845Z,0
2018-09-11T04:57:39.996Z,0
2018-09-11T04:58:12.042Z,0
2018-09-11T04:58:44.090Z,0
2018-09-11T04:59:16.115Z,0
2018-09-11T04:59:48.187Z,0
2018-09-11T05:00:20.346Z,0
2018-09-11T05:00:52.486Z,0
2018-09-11T05:01:24.509Z,0
2018-09-11T05:01:56.542Z,0
2018-09-11T05:02:28.580Z,0
2018-09-11T05:03:00.612Z,0
2018-09-11T05:03:32.677Z,0
2018-09-11T05:04:04.729Z,0
2018-09-11T05:04:36.797Z,0
2018-09-11T05:05:08.911Z,5
2018-09-11T05:05:40.981Z,5
2018-09-11T05:06:13.011Z,5
2018-09-11T05:06:45.127Z,5
2018-09-11T05:07:17.200Z,5
2018-09-11T05:07:49.236Z,5
2018-09-11T05:08:21.307Z,5
2018-09-11T05:08:53.335Z,5
2018-09-11T05:09:25.340Z,5
2018-09-11T05:09:57.381Z,5
2018-09-11T05:10:29.455Z,5
2018-09-11T05:11:01.474Z,5
2018-09-11T05:11:33.554Z,5
2018-09-11T05:12:05.677Z,5
2018-09-11T05:12:37.799Z,5
2018-09-11T05:13:09.837Z,5
2018-09-11T05:13:42.019Z,5
2018-09-11T05:14:14.055Z,5
2018-09-11T05:14:46.127Z,5
2018-09-11T05:15:18.235Z,5
2018-09-11T05:15:50.294Z,5
2018-09-11T05:16:22.338Z,5
2018-09-11T05:16:54.352Z,5
2018-09-11T05:17:26.363Z,5
2018-09-11T05:17:58.385Z,5
2018-09-11T05:18:30.457Z,5
2018-09-11T05:19:02.560Z,5
2018-09-11T05:19:34.589Z,5
2018-09-11T05:20:06.628Z,5
2018-09-11T05:20:38.667Z,5
2018-09-11T05:21:10.664Z,5
2018-09-11T05:21:42.641Z,5
2018-09-11T05:22:14.684Z,5
2018-09-11T05:22:46.735Z,10
2018-09-11T05:23:18.695Z,10
2018-09-11T05:23:50.784Z,10
2018-09-11T05:24:22.823Z,10
2018-09-11T05:24:54.908Z,10
2018-09-11T05:25:26.990Z,10
2018-09-11T05:25:59.031Z,10
2018-09-11T05:26:31.091Z,10
2018-09-11T05:27:03.160Z,10
2018-09-11T05:27:35.482Z,10
2018-09-11T05:28:07.334Z,10
2018-09-11T05:28:39.534Z,10
2018-09-11T05:29:11.534Z,10
2018-09-11T05:29:43.584Z,10
2018-09-11T05:30:15.651Z,10
2018-09-11T05:30:47.709Z,10
2018-09-11T05:31:19.747Z,10
2018-09-11T05:31:51.802Z,10
2018-09-11T05:32:23.871Z,10
2018-09-11T05:32:55.917Z,10
2018-09-11T05:33:27.985Z,10
2018-09-11T05:34:00.012Z,15
2018-09-11T05:34:32.059Z,15
2018-09-11T05:35:04.149Z,15
2018-09-11T05:35:36.535Z,15
2018-09-11T05:36:08.647Z,15
2018-09-11T05:36:40.669Z,15
2018-09-11T05:37:12.747Z,15
2018-09-11T05:37:44.831Z,15
2018-09-11T05:38:16.823Z,15
2018-09-11T05:38:48.849Z,15
2018-09-11T05:39:20.866Z,20
2018-09-11T05:39:52.931Z,20
2018-09-11T05:40:24.960Z,20
2018-09-11T05:40:57.089Z,20
2018-09-11T05:41:29.126Z,20
2018-09-11T05:42:01.173Z,20
2018-09-11T05:42:33.951Z,20
2018-09-11T05:43:06.020Z,20
2018-09-11T05:43:38.097Z,25
2018-09-11T05:44:10.155Z,25
2018-09-11T05:44:42.209Z,25
2018-09-11T05:45:14.259Z,30
2018-09-11T05:45:46.417Z,30
2018-09-11T05:46:18.431Z,30
2018-09-11T05:46:50.526Z,30
2018-09-11T05:47:23.065Z,30
2018-09-11T05:47:55.113Z,30
2018-09-11T05:48:27.176Z,30
2018-09-11T05:48:59.230Z,30
2018-09-11T05:49:31.258Z,30
2018-09-11T05:50:03.305Z,30
2018-09-11T05:50:35.413Z,30
2018-09-11T05:51:07.469Z,30
2018-09-11T05:51:39.562Z,30
2018-09-11T05:52:11.592Z,30
2018-09-11T05:52:43.674Z,30
2018-09-11T05:53:15.753Z,35
2018-09-11T05:53:47.825Z,40
2018-09-11T05:54:19.874Z,35
2018-09-11T05:54:51.917Z,40
2018-09-11T05:55:23.964Z,35
2018-09-11T05:55:55.982Z,40
2018-09-11T05:56:28.026Z,40
2018-09-11T05:57:00.079Z,45
2018-09-11T05:57:32.137Z,40
2018-09-11T05:58:04.213Z,45
2018-09-11T05:58:36.272Z,45
2018-09-11T05:59:08.372Z,50
2018-09-11T05:59:40.413Z,45
2018-09-11T06:00:12.406Z,45
2018-09-11T06:00:44.602Z,45
2018-09-11T06:01:16.669Z,40
2018-09-11T06:01:48.724Z,40
2018-09-11T06:02:20.775Z,40
2018-09-11T06:02:52.796Z,40
2018-09-11T06:03:24.882Z,50
2018-09-11T06:03:56.870Z,45
2018-09-11T06:04:28.937Z,45
2018-09-11T06:05:01.033Z,50
2018-09-11T06:05:33.261Z,65
2018-09-11T06:06:05.269Z,70
2018-09-11T06:06:37.364Z,80
2018-09-11T06:07:09.393Z,80
2018-09-11T06:07:41.459Z,85
2018-09-11T06:08:13.527Z,90
2018-09-11T06:08:45.638Z,90
2018-09-11T06:09:17.793Z,85
2018-09-11T06:09:49.944Z,80
2018-09-11T06:10:21.989Z,85
2018-09-11T06:10:54.064Z,70
2018-09-11T06:11:26.115Z,45
2018-09-11T06:11:58.139Z,45
2018-09-11T06:12:30.283Z,45
2018-09-11T06:13:02.318Z,40
2018-09-11T06:13:34.368Z,40
2018-09-11T06:14:06.398Z,50
2018-09-11T06:14:38.416Z,40
2018-09-11T06:15:10.426Z,40
2018-09-11T06:15:42.508Z,40
2018-09-11T06:16:14.549Z,40
2018-09-11T06:16:46.555Z,55
2018-09-11T06:17:18.622Z,80
2018-09-11T06:17:50.683Z,60
2018-09-11T06:18:22.743Z,85
2018-09-11T06:18:54.773Z,90
2018-09-11T06:19:26.794Z,80
2018-09-11T06:19:58.812Z,55
2018-09-11T06:20:30.907Z,45
2018-09-11T06:21:02.987Z,45
2018-09-11T06:21:35.062Z,85
2018-09-11T06:22:07.081Z,55
2018-09-11T06:22:39.146Z,85
2018-09-11T06:23:11.188Z,90
2018-09-11T06:23:43.220Z,75
2018-09-11T06:24:15.243Z,85
2018-09-11T06:24:47.298Z,80
2018-09-11T06:25:19.414Z,95
2018-09-11T06:25:52.588Z,95
2018-09-11T06:26:24.554Z,90
2018-09-11T06:26:56.629Z,95
2018-09-11T06:27:28.716Z,90
2018-09-11T06:28:00.729Z,95
2018-09-11T06:28:32.847Z,95
2018-09-11T06:29:05.014Z,75
2018-09-11T06:29:37.135Z,85
2018-09-11T06:30:09.230Z,80
2018-09-11T06:30:41.292Z,65
2018-09-11T06:31:13.394Z,95
2018-09-11T06:31:45.434Z,95
2018-09-11T06:32:17.536Z,45
2018-09-11T06:32:49.630Z,80
2018-09-11T06:33:21.650Z,50
2018-09-11T06:33:53.872Z,65
2018-09-11T06:34:26.016Z,80
2018-09-11T06:34:58.184Z,75
2018-09-11T06:35:30.419Z,60
2018-09-11T06:36:02.461Z,70
2018-09-11T06:36:34.636Z,80
2018-09-11T06:37:06.669Z,95
2018-09-11T06:37:38.695Z,100
2018-09-11T06:38:10.746Z,100
2018-09-11T06:38:42.785Z,100
2018-09-11T06:39:14.834Z,100
2018-09-11T06:39:46.920Z,100
2018-09-11T06:40:18.932Z,100
2018-09-11T06:40:51.088Z,105
2018-09-11T06:41:23.259Z,100
2018-09-11T06:41:55.307Z,100
2018-09-11T06:42:27.381Z,105
2018-09-11T06:42:59.424Z,105
2018-09-11T06:43:31.426Z,105
2018-09-11T06:44:03.508Z,105
2018-09-11T06:44:35.635Z,95
2018-09-11T06:45:07.700Z,95
2018-09-11T06:45:39.750Z,105
2018-09-11T06:46:11.833Z,105
2018-09-11T06:46:43.924Z,105
2018-09-11T06:47:16.013Z,105
2018-09-11T06:47:48.770Z,110
2018-09-11T06:48:20.824Z,105
2018-09-11T06:48:52.952Z,110
2018-09-11T06:49:25.002Z,110
2018-09-11T06:49:57.062Z,105
2018-09-11T06:50:29.036Z,110
2018-09-11T06:51:01.119Z,110
2018-09-11T06:51:33.199Z,105
2018-09-11T06:52:05.251Z,105
2018-09-11T06:52:37.307Z,110
2018-09-11T06:53:09.343Z,110
2018-09-11T06:53:41.413Z,105
2018-09-11T06:54:13.533Z,110
2018-09-11T06:54:45.927Z,110
2018-09-11T06:55:18.020Z,115
2018-09-11T06:55:50.337Z,110
2018-09-11T06:56:22.396Z,110
2018-09-11T06:56:54.456Z,110
2018-09-11T06:57:26.480Z,110
2018-09-11T06:57:58.568Z,115
2018-09-11T06:58:30.711Z,115
2018-09-11T06:59:03.268Z,115
2018-09-11T06:59:35.254Z,115
2018-09-11T07:00:07.297Z,120
2018-09-11T07:00:39.462Z,115
2018-09-11T07:01:11.559Z,115
2018-09-11T07:01:43.686Z,115
2018-09-11T07:02:15.759Z,120
2018-09-11T07:02:47.930Z,120
2018-09-11T07:03:20.089Z,120
2018-09-11T07:03:52.153Z,120
2018-09-11T07:04:24.226Z,120
2018-09-11T07:04:56.301Z,120
2018-09-11T07:05:28.372Z,120
2018-09-11T07:06:00.470Z,125
2018-09-11T07:06:32.699Z,125
2018-09-11T07:07:04.863Z,125
2018-09-11T07:07:36.949Z,120
2018-09-11T07:08:09.049Z,120
2018-09-11T07:08:41.115Z,120
2018-09-11T07:09:13.190Z,120
2018-09-11T07:09:45.264Z,115
2018-09-11T07:10:17.336Z,115
2018-09-11T07:10:49.453Z,125
2018-09-11T07:11:21.528Z,125
2018-09-11T07:11:53.603Z,130
2018-09-11T07:12:25.694Z,135
2018-09-11T07:12:57.818Z,135
2018-09-11T07:13:29.848Z,135
2018-09-11T07:14:01.901Z,135
2018-09-11T07:14:34.112Z,135
2018-09-11T07:15:06.245Z,135
2018-09-11T07:15:38.380Z,135
2018-09-11T07:16:10.425Z,135
2018-09-11T07:16:42.410Z,130
2018-09-11T07:17:14.474Z,130
2018-09-11T07:17:46.613Z,130
2018-09-11T07:18:18.785Z,135
2018-09-11T07:18:50.876Z,140
2018-09-11T07:19:22.974Z,140
2018-09-11T07:19:55.228Z,135
2018-09-11T07:20:27.362Z,135
2018-09-11T07:20:59.246Z,130
2018-09-11T07:21:31.313Z,140
2018-09-11T07:22:03.381Z,135
2018-09-11T07:22:35.479Z,140
2018-09-11T07:23:07.607Z,140
2018-09-11T07:23:39.741Z,135
2018-09-11T07:24:11.759Z,135
2018-09-11T07:24:43.807Z,135
2018-09-11T07:25:15.866Z,135
2018-09-11T07:25:48.887Z,135
2018-09-11T07:26:20.968Z,125
2018-09-11T07:26:53.231Z,120
2018-09-11T07:27:25.273Z,115
2018-09-11T07:27:57.310Z,120
2018-09-11T07:28:29.381Z,80
2018-09-11T07:29:01.422Z,135
2018-09-11T07:29:33.561Z,95
2018-09-11T07:30:05.611Z,135
2018-09-11T07:30:37.642Z,145
2018-09-11T07:31:09.720Z,135
2018-09-11T07:31:41.733Z,115
2018-09-11T07:32:13.872Z,85
2018-09-11T07:32:45.964Z,110
2018-09-11T07:33:18.029Z,110
2018-09-11T07:33:50.806Z,130
2018-09-11T07:34:22.830Z,135
2018-09-11T07:34:54.951Z,145
2018-09-11T07:35:27.004Z,150
2018-09-11T07:35:59.122Z,150
2018-09-11T07:36:31.303Z,130
2018-09-11T07:37:03.325Z,100
2018-09-11T07:37:35.374Z,105
2018-09-11T07:38:07.516Z,95
2018-09-11T07:38:39.552Z,95
2018-09-11T07:39:11.601Z,130
2018-09-11T07:39:43.666Z,135
2018-09-11T07:40:15.709Z,125
2018-09-11T07:40:47.777Z,130
2018-09-11T07:41:20.042Z,125
2018-09-11T07:41:52.195Z,120
2018-09-11T07:42:24.267Z,130
2018-09-11T07:42:56.286Z,110
2018-09-11T07:43:28.341Z,135
2018-09-11T07:44:00.417Z,90
2018-09-11T07:44:32.468Z,150
2018-09-11T07:45:04.577Z,140
2018-09-11T07:45:36.832Z,130
2018-09-11T07:46:08.694Z,140
2018-09-11T07:46:40.753Z,105